createdAt,value
2022-09-05T00:01:03.597Z,6.90
2022-09-05T00:11:43.320Z,9.10
2022-09-05T00:32:51.025Z,10.60
2022-09-05T00:43:15.640Z,9.80
2022-09-05T00:53:39.970Z,10.70
2022-09-05T01:04:07.760Z,12.40
2022-09-05T01:14:52.045Z,12.00
2022-09-05T01:25:20.770Z,10.00
2022-09-05T01:36:15.705Z,8.20
2022-09-05T01:46:43.724Z,8.30
2022-09-05T01:57:08.811Z,13.10
2022-09-05T02:07:35.353Z,13.20
2022-09-05T02:18:02.854Z,10.50
2022-09-05T02:28:25.803Z,9.20
2022-09-05T02:45:02.266Z,10.10
2022-09-05T02:53:13.793Z,11.60
2022-09-05T03:00:37.104Z,11.60
2022-09-05T03:11:46.532Z,10.10
2022-09-05T03:22:36.236Z,11.30
2022-09-05T03:33:37.999Z,12.90
2022-09-05T03:44:22.375Z,17.00
2022-09-05T03:57:25.905Z,13.10
2022-09-05T04:08:26.242Z,12.40
2022-09-05T04:16:57.575Z,11.10
2022-09-05T04:27:31.730Z,11.90
2022-09-05T04:37:55.696Z,11.00
2022-09-05T04:48:20.116Z,14.90
2022-09-05T05:00:42.687Z,17.60
2022-09-05T05:09:41.235Z,17.70
2022-09-05T05:20:39.773Z,18.70
2022-09-05T05:31:01.211Z,13.60
2022-09-05T05:41:34.553Z,11.00
2022-09-05T05:52:41.100Z,10.30
2022-09-05T06:03:49.147Z,8.70
2022-09-05T06:15:08.811Z,9.80
2022-09-05T06:26:00.639Z,10.90
2022-09-05T06:36:27.448Z,8.70
2022-09-05T06:47:22.549Z,7.70
2022-09-05T06:57:49.741Z,7.20
2022-09-05T07:08:36.140Z,6.30
2022-09-05T07:19:06.963Z,7.10
2022-09-05T07:29:37.475Z,6.70
2022-09-05T07:40:24.934Z,6.30
2022-09-05T07:56:46.154Z,6.10
2022-09-05T08:01:38.637Z,6.30
2022-09-05T08:12:11.487Z,5.90
2022-09-05T08:22:40.614Z,5.80
2022-09-05T08:33:12.778Z,5.70
2022-09-05T08:46:37.587Z,5.50
2022-09-05T08:54:23.442Z,4.60
2022-09-05T09:05:02.490Z,4.80
2022-09-05T09:15:36.759Z,4.40
2022-09-05T09:25:59.694Z,4.30
2022-09-05T09:36:32.437Z,5.10
2022-09-05T09:46:57.678Z,4.40
2022-09-05T09:57:51.578Z,4.10
2022-09-05T10:10:54.005Z,3.20
2022-09-05T10:20:10.561Z,3.00
2022-09-05T10:33:16.949Z,2.20
2022-09-05T10:41:43.689Z,2.90
2022-09-05T10:52:17.858Z,2.10
2022-09-05T11:02:48.303Z,2.80
2022-09-05T11:13:17.310Z,2.30
2022-09-05T11:39:48.559Z,2.50
2022-09-05T11:45:37.024Z,3.00
2022-09-05T11:56:45.473Z,2.30
2022-09-05T12:07:30.105Z,2.60
2022-09-05T12:18:19.454Z,2.70
2022-09-05T12:29:33.394Z,2.70
2022-09-05T12:40:57.747Z,2.50
2022-09-05T12:50:25.793Z,2.60
2022-09-05T13:03:14.305Z,2.20
2022-09-05T13:15:02.616Z,3.00
2022-09-05T13:22:23.647Z,2.30
2022-09-05T13:38:06.456Z,3.30
2022-09-05T13:43:35.474Z,3.50
2022-09-05T13:54:16.613Z,2.00
2022-09-05T14:05:06.025Z,2.30
2022-09-05T14:15:53.709Z,2.80
2022-09-05T14:26:25.970Z,2.40
2022-09-05T14:38:00.849Z,3.00
2022-09-05T14:47:51.551Z,2.80
2022-09-05T15:02:45.585Z,2.80
2022-09-05T15:11:24.102Z,2.60
2022-09-05T15:18:57.243Z,3.10
2022-09-05T15:29:14.653Z,3.30
2022-09-05T15:39:26.247Z,3.80
2022-09-05T15:49:37.044Z,3.10
2022-09-05T15:59:49.651Z,3.20
2022-09-05T16:10:46.390Z,3.20
2022-09-05T16:23:14.891Z,3.60
2022-09-05T16:31:03.883Z,3.70
2022-09-05T16:41:08.753Z,3.90
2022-09-05T16:51:35.175Z,3.70
2022-09-05T17:01:54.883Z,3.90
2022-09-05T17:12:10.623Z,3.90
2022-09-05T17:25:42.954Z,3.80
2022-09-05T17:32:46.252Z,4.20
2022-09-05T17:42:58.953Z,4.60
2022-09-05T17:53:26.329Z,4.80
2022-09-05T18:04:08.479Z,5.70
2022-09-05T18:14:42.859Z,7.00
2022-09-05T18:24:55.048Z,7.60
2022-09-05T18:35:29.297Z,4.70
2022-09-05T18:45:52.391Z,3.50
2022-09-05T18:56:20.801Z,3.10
2022-09-05T19:06:36.200Z,2.60
2022-09-05T19:16:48.414Z,2.10
2022-09-05T19:28:57.046Z,1.90
2022-09-05T19:37:47.421Z,1.80
2022-09-05T19:48:07.402Z,1.80
2022-09-05T19:58:20.602Z,2.40
2022-09-05T20:18:39.823Z,1.50
2022-09-05T20:28:52.720Z,1.70
2022-09-05T20:43:14.980Z,3.00
2022-09-05T20:54:28.948Z,2.00
2022-09-05T21:00:04.238Z,2.00
2022-09-05T21:10:28.679Z,2.20
2022-09-05T21:20:52.338Z,2.60
2022-09-05T21:30:57.942Z,2.30
2022-09-05T21:41:08.338Z,2.10
2022-09-05T22:01:19.366Z,2.10
2022-09-05T22:11:46.309Z,2.10
2022-09-05T22:21:56.190Z,2.00
2022-09-05T22:32:04.195Z,2.00
2022-09-05T22:42:11.101Z,2.10
2022-09-05T22:52:18.689Z,2.40
2022-09-05T23:02:25.805Z,3.00
2022-09-05T23:12:36.542Z,2.60
2022-09-05T23:22:43.284Z,2.50
2022-09-05T23:32:52.168Z,3.50
2022-09-05T23:43:00.017Z,2.30
2022-09-05T23:53:07.697Z,2.90
